createdAt,value
2022-10-30T00:01:56.674Z,101629.00
2022-10-30T00:04:23.510Z,101629.00
2022-10-30T00:06:50.095Z,101633.00
2022-10-30T00:09:16.785Z,101634.00
2022-10-30T00:11:43.405Z,101642.00
2022-10-30T00:14:09.960Z,101638.00
2022-10-30T00:16:36.505Z,101644.00
2022-10-30T00:19:03.444Z,101641.00
2022-10-30T00:21:29.953Z,101640.00
2022-10-30T00:23:56.515Z,101634.00
2022-10-30T00:26:23.810Z,101647.00
2022-10-30T00:28:55.762Z,101639.00
2022-10-30T00:31:22.860Z,101637.00
2022-10-30T00:33:51.426Z,101634.00
2022-10-30T00:36:18.211Z,101634.00
2022-10-30T00:38:44.781Z,101641.00
2022-10-30T00:41:16.201Z,101640.00
2022-10-30T00:43:43.001Z,101633.00
2022-10-30T00:46:18.253Z,101627.00
2022-10-30T00:48:48.489Z,101637.00
2022-10-30T00:51:15.361Z,101636.00
2022-10-30T00:53:43.174Z,101636.00
2022-10-30T00:56:11.847Z,101640.00
2022-10-30T00:58:48.508Z,101633.00
2022-10-30T01:01:19.843Z,101637.00
2022-10-30T01:03:49.794Z,101632.00
2022-10-30T01:06:17.244Z,101628.00
2022-10-30T01:08:45.470Z,101629.00
2022-10-30T01:11:12.483Z,101630.00
2022-10-30T01:13:41.173Z,101624.00
2022-10-30T01:16:31.637Z,101624.00
2022-10-30T01:19:24.369Z,101632.00
2022-10-30T01:21:56.515Z,101631.00
2022-10-30T01:24:28.507Z,101628.00
2022-10-30T01:27:26.294Z,101623.00
2022-10-30T01:30:19.874Z,101619.00
2022-10-30T01:33:22.010Z,101612.00
2022-10-30T01:36:33.090Z,101619.00
2022-10-30T01:39:04.279Z,101622.00
2022-10-30T01:41:30.829Z,101612.00
2022-10-30T01:44:03.577Z,101613.00
2022-10-30T01:46:59.111Z,101612.00
2022-10-30T01:49:48.703Z,101607.00
2022-10-30T01:52:30.315Z,101614.00
2022-10-30T01:55:04.993Z,101616.00
2022-10-30T01:57:40.549Z,101612.00
2022-10-30T02:00:12.602Z,101620.00
2022-10-30T02:02:39.267Z,101623.00
2022-10-30T02:05:10.149Z,101624.00
2022-10-30T02:07:36.887Z,101627.00
2022-10-30T02:10:04.509Z,101631.00
2022-10-30T02:12:31.443Z,101632.00
2022-10-30T02:15:00.296Z,101623.00
2022-10-30T02:17:27.969Z,101621.00
2022-10-30T02:19:54.541Z,101619.00
2022-10-30T02:22:21.161Z,101616.00
2022-10-30T02:24:47.772Z,101608.00
2022-10-30T02:27:14.328Z,101608.00
2022-10-30T02:29:40.973Z,101606.00
2022-10-30T02:32:07.590Z,101613.00
2022-10-30T02:34:34.125Z,101609.00
2022-10-30T02:37:00.687Z,101606.00
2022-10-30T02:39:27.228Z,101607.00
2022-10-30T02:41:54.127Z,101607.00
2022-10-30T02:44:20.627Z,101612.00
2022-10-30T02:46:47.165Z,101600.00
2022-10-30T02:49:13.729Z,101596.00
2022-10-30T02:51:40.266Z,101595.00
2022-10-30T02:54:06.841Z,101589.00
2022-10-30T02:56:33.456Z,101580.00
2022-10-30T02:59:00.108Z,101581.00
2022-10-30T03:01:26.748Z,101582.00
2022-10-30T03:03:53.361Z,101582.00
2022-10-30T03:06:19.933Z,101588.00
2022-10-30T03:08:46.549Z,101580.00
2022-10-30T03:11:15.730Z,101579.00
2022-10-30T03:13:43.611Z,101575.00
2022-10-30T03:16:13.300Z,101577.00
2022-10-30T03:18:40.369Z,101581.00
2022-10-30T03:21:08.831Z,101574.00
2022-10-30T03:23:35.905Z,101577.00
2022-10-30T03:26:02.927Z,101585.00
2022-10-30T03:28:31.413Z,101582.00
2022-10-30T03:31:15.323Z,101583.00
2022-10-30T03:33:42.233Z,101586.00
2022-10-30T03:36:10.272Z,101592.00
2022-10-30T03:38:36.991Z,101596.00
2022-10-30T03:41:04.345Z,101596.00
2022-10-30T03:43:30.890Z,101592.00
2022-10-30T03:45:57.691Z,101600.00
2022-10-30T03:48:27.012Z,101597.00
2022-10-30T03:50:54.667Z,101601.00
2022-10-30T03:53:23.208Z,101606.00
2022-10-30T03:55:50.713Z,101599.00
2022-10-30T03:58:17.261Z,101606.00
2022-10-30T04:00:43.836Z,101616.00
2022-10-30T04:03:11.456Z,101595.00
2022-10-30T04:05:38.427Z,101605.00
2022-10-30T04:08:08.048Z,101598.00
2022-10-30T04:10:35.150Z,101598.00
2022-10-30T04:13:03.247Z,101600.00
2022-10-30T04:15:29.985Z,101609.00
2022-10-30T04:17:56.837Z,101612.00
2022-10-30T04:20:24.911Z,101604.00
2022-10-30T04:23:02.912Z,101614.00
2022-10-30T04:25:30.294Z,101613.00
2022-10-30T04:27:57.373Z,101621.00
2022-10-30T04:30:27.680Z,101612.00
2022-10-30T04:32:56.090Z,101616.00
2022-10-30T04:35:25.194Z,101606.00
2022-10-30T04:37:56.557Z,101616.00
2022-10-30T04:40:25.107Z,101602.00
2022-10-30T04:42:52.274Z,101609.00
2022-10-30T04:45:19.084Z,101612.00
2022-10-30T04:47:46.405Z,101608.00
2022-10-30T04:50:13.712Z,101604.00
2022-10-30T04:52:40.307Z,101596.00
2022-10-30T04:55:08.140Z,101593.00
2022-10-30T04:57:36.875Z,101586.00
2022-10-30T05:00:08.449Z,101586.00
2022-10-30T05:02:36.914Z,101587.00
2022-10-30T05:05:04.680Z,101580.00
2022-10-30T05:07:31.569Z,101596.00
2022-10-30T05:09:58.123Z,101598.00
2022-10-30T05:12:24.686Z,101597.00
2022-10-30T05:14:51.281Z,101590.00
2022-10-30T05:17:17.921Z,101587.00
2022-10-30T05:19:44.487Z,101583.00
2022-10-30T05:22:11.044Z,101579.00
2022-10-30T05:24:37.595Z,101579.00
2022-10-30T05:27:04.255Z,101565.00
2022-10-30T05:29:30.847Z,101563.00
2022-10-30T05:31:57.397Z,101552.00
2022-10-30T05:34:24.170Z,101553.00
2022-10-30T05:36:50.692Z,101554.00
2022-10-30T05:39:17.271Z,101551.00
2022-10-30T05:41:43.856Z,101552.00
2022-10-30T05:44:10.395Z,101543.00
2022-10-30T05:46:36.992Z,101551.00
2022-10-30T05:49:04.020Z,101537.00
2022-10-30T05:51:30.727Z,101542.00
2022-10-30T05:53:57.277Z,101545.00
2022-10-30T05:56:23.882Z,101547.00
2022-10-30T05:58:51.024Z,101551.00
2022-10-30T06:01:18.281Z,101554.00
2022-10-30T06:03:45.456Z,101551.00
2022-10-30T06:06:12.045Z,101556.00
2022-10-30T06:08:38.602Z,101551.00
2022-10-30T06:11:05.174Z,101551.00
2022-10-30T06:13:31.774Z,101547.00
2022-10-30T06:15:58.359Z,101544.00
2022-10-30T06:18:25.037Z,101549.00
2022-10-30T06:20:51.587Z,101539.00
2022-10-30T06:23:18.185Z,101553.00
2022-10-30T06:25:44.771Z,101554.00
2022-10-30T06:28:11.699Z,101561.00
2022-10-30T06:30:38.282Z,101564.00
2022-10-30T06:33:05.814Z,101565.00
2022-10-30T06:35:32.761Z,101577.00
2022-10-30T06:38:00.363Z,101575.00
2022-10-30T06:40:28.183Z,101582.00
2022-10-30T06:42:55.166Z,101591.00
2022-10-30T06:45:23.670Z,101582.00
2022-10-30T06:47:50.516Z,101577.00
2022-10-30T06:50:19.402Z,101566.00
2022-10-30T06:52:46.070Z,101574.00
2022-10-30T06:55:12.872Z,101573.00
2022-10-30T06:57:39.419Z,101577.00
2022-10-30T07:00:07.705Z,101570.00
2022-10-30T07:02:34.801Z,101579.00
2022-10-30T07:05:01.498Z,101579.00
2022-10-30T07:07:28.660Z,101567.00
2022-10-30T07:09:55.227Z,101566.00
2022-10-30T07:12:21.782Z,101580.00
2022-10-30T07:14:48.336Z,101562.00
2022-10-30T07:17:14.976Z,101564.00
2022-10-30T07:19:41.533Z,101562.00
2022-10-30T07:22:08.115Z,101566.00
2022-10-30T07:24:34.691Z,101566.00
2022-10-30T07:27:01.286Z,101568.00
2022-10-30T07:29:27.861Z,101566.00
2022-10-30T07:32:09.105Z,101577.00
2022-10-30T07:34:35.721Z,101592.00
2022-10-30T07:37:02.318Z,101604.00
2022-10-30T07:39:28.923Z,101604.00
2022-10-30T07:41:55.458Z,101608.00
2022-10-30T07:44:22.142Z,101624.00
2022-10-30T07:46:48.802Z,101630.00
2022-10-30T07:49:15.326Z,101636.00
2022-10-30T07:51:41.913Z,101638.00
2022-10-30T07:54:08.485Z,101645.00
2022-10-30T07:56:35.058Z,101645.00
2022-10-30T07:59:01.625Z,101665.00
2022-10-30T08:01:28.244Z,101665.00
2022-10-30T08:03:54.910Z,101668.00
2022-10-30T08:06:24.580Z,101664.00
2022-10-30T08:08:53.532Z,101659.00
2022-10-30T08:11:20.144Z,101664.00
2022-10-30T08:13:47.041Z,101669.00
2022-10-30T08:16:13.697Z,101679.00
2022-10-30T08:18:42.636Z,101676.00
2022-10-30T08:21:10.216Z,101681.00
2022-10-30T08:23:37.084Z,101684.00
2022-10-30T08:26:04.078Z,101675.00
2022-10-30T08:28:32.786Z,101674.00
2022-10-30T08:31:01.184Z,101697.00
2022-10-30T08:33:28.461Z,101691.00
2022-10-30T08:35:57.313Z,101682.00
2022-10-30T08:38:24.439Z,101690.00
2022-10-30T08:40:51.274Z,101689.00
2022-10-30T08:43:18.600Z,101694.00
2022-10-30T08:45:45.209Z,101694.00
2022-10-30T08:48:13.945Z,101689.00
2022-10-30T08:50:41.052Z,101689.00
2022-10-30T08:53:11.274Z,101678.00
2022-10-30T08:55:38.109Z,101673.00
2022-10-30T08:58:04.707Z,101670.00
2022-10-30T09:00:31.596Z,101664.00
2022-10-30T09:02:58.661Z,101658.00
2022-10-30T09:05:25.714Z,101663.00
2022-10-30T09:08:01.263Z,101655.00
2022-10-30T09:10:29.220Z,101659.00
2022-10-30T09:12:59.618Z,101650.00
2022-10-30T09:15:26.809Z,101653.00
2022-10-30T09:17:58.531Z,101656.00
2022-10-30T09:20:25.960Z,101657.00
2022-10-30T09:22:52.538Z,101662.00
2022-10-30T09:25:19.551Z,101661.00
2022-10-30T09:27:46.369Z,101657.00
2022-10-30T09:30:14.541Z,101654.00
2022-10-30T09:32:41.543Z,101645.00
2022-10-30T09:35:08.593Z,101644.00
2022-10-30T09:37:36.884Z,101642.00
2022-10-30T09:40:04.937Z,101644.00
2022-10-30T09:42:41.758Z,101633.00
2022-10-30T09:45:29.067Z,101630.00
2022-10-30T09:48:08.634Z,101644.00
2022-10-30T09:50:48.175Z,101638.00
2022-10-30T09:53:18.199Z,101642.00
2022-10-30T09:55:47.785Z,101642.00
2022-10-30T09:58:30.395Z,101634.00
2022-10-30T10:01:16.741Z,101633.00
2022-10-30T10:04:02.642Z,101629.00
2022-10-30T10:06:29.741Z,101629.00
2022-10-30T10:09:01.593Z,101635.00
2022-10-30T10:11:38.294Z,101627.00
2022-10-30T10:14:13.862Z,101625.00
2022-10-30T10:16:42.610Z,101644.00
2022-10-30T10:19:15.077Z,101648.00
2022-10-30T10:21:49.584Z,101650.00
2022-10-30T10:24:21.020Z,101649.00
2022-10-30T10:26:52.648Z,101657.00
2022-10-30T10:29:34.094Z,101655.00
2022-10-30T10:32:38.154Z,101666.00
2022-10-30T10:35:37.608Z,101664.00
2022-10-30T10:38:25.850Z,101662.00
2022-10-30T10:41:21.231Z,101664.00
2022-10-30T10:44:16.820Z,101661.00
2022-10-30T10:46:52.419Z,101657.00
2022-10-30T10:50:07.164Z,101655.00
2022-10-30T10:53:06.718Z,101665.00
2022-10-30T10:55:36.924Z,101664.00
2022-10-30T10:58:13.122Z,101658.00
2022-10-30T11:00:40.632Z,101664.00
2022-10-30T11:03:36.217Z,101660.00
2022-10-30T11:06:14.019Z,101655.00
2022-10-30T11:08:40.710Z,101663.00
2022-10-30T11:11:07.800Z,101651.00
2022-10-30T11:13:38.029Z,101638.00
2022-10-30T11:16:40.940Z,101632.00
2022-10-30T11:19:09.156Z,101627.00
2022-10-30T11:21:41.976Z,101613.00
2022-10-30T11:24:27.289Z,101608.00
2022-10-30T11:26:56.745Z,101629.00
2022-10-30T11:29:25.951Z,101628.00
2022-10-30T11:32:04.009Z,101627.00
2022-10-30T11:34:37.726Z,101628.00
2022-10-30T11:37:05.168Z,101633.00
2022-10-30T11:39:35.510Z,101626.00
2022-10-30T11:42:06.578Z,101628.00
2022-10-30T11:44:39.289Z,101618.00
2022-10-30T11:47:07.506Z,101618.00
2022-10-30T11:49:56.333Z,101608.00
2022-10-30T11:52:24.914Z,101607.00
2022-10-30T11:55:23.109Z,101617.00
2022-10-30T11:57:52.885Z,101633.00
2022-10-30T12:00:25.465Z,101638.00
2022-10-30T12:02:54.763Z,101644.00
2022-10-30T12:05:32.840Z,101651.00
2022-10-30T12:08:08.430Z,101664.00
2022-10-30T12:10:57.157Z,101668.00
2022-10-30T12:13:25.617Z,101682.00
2022-10-30T12:16:18.319Z,101689.00
2022-10-30T12:19:15.904Z,101697.00
2022-10-30T12:21:51.222Z,101701.00
2022-10-30T12:24:35.875Z,101701.00
2022-10-30T12:27:03.731Z,101708.00
2022-10-30T12:30:09.743Z,101700.00
2022-10-30T12:32:54.018Z,101693.00
2022-10-30T12:35:29.438Z,101685.00
2022-10-30T12:37:59.976Z,101683.00
2022-10-30T12:40:41.448Z,101686.00
2022-10-30T12:43:24.345Z,101699.00
2022-10-30T12:45:54.506Z,101707.00
2022-10-30T12:48:32.871Z,101702.00
2022-10-30T12:51:08.683Z,101703.00
2022-10-30T12:54:23.486Z,101704.00
2022-10-30T12:56:57.180Z,101699.00
2022-10-30T12:59:41.330Z,101688.00
2022-10-30T13:02:31.107Z,101690.00
2022-10-30T13:05:06.864Z,101680.00
2022-10-30T13:07:41.653Z,101673.00
2022-10-30T13:10:28.939Z,101664.00
2022-10-30T13:13:02.140Z,101660.00
2022-10-30T13:15:36.235Z,101653.00
2022-10-30T13:18:14.813Z,101637.00
2022-10-30T13:20:43.740Z,101637.00
2022-10-30T13:23:16.785Z,101652.00
2022-10-30T13:25:52.339Z,101655.00
2022-10-30T13:28:40.627Z,101667.00
2022-10-30T13:31:07.122Z,101682.00
2022-10-30T13:33:52.930Z,101682.00
2022-10-30T13:36:30.441Z,101682.00
2022-10-30T13:39:29.314Z,101680.00
2022-10-30T13:42:10.599Z,101685.00
2022-10-30T13:44:53.781Z,101676.00
2022-10-30T13:47:44.724Z,101672.00
2022-10-30T13:50:14.207Z,101694.00
2022-10-30T13:52:44.691Z,101685.00
2022-10-30T13:55:26.135Z,101673.00
2022-10-30T13:57:52.642Z,101655.00
2022-10-30T14:00:25.858Z,101656.00
2022-10-30T14:03:11.830Z,101643.00
2022-10-30T14:05:54.387Z,101653.00
2022-10-30T14:08:25.574Z,101646.00
2022-10-30T14:10:57.700Z,101637.00
2022-10-30T14:13:46.507Z,101640.00
2022-10-30T14:16:34.803Z,101651.00
2022-10-30T14:19:07.402Z,101661.00
2022-10-30T14:21:57.185Z,101663.00
2022-10-30T14:24:32.348Z,101664.00
2022-10-30T14:27:04.897Z,101671.00
2022-10-30T14:29:34.573Z,101676.00
2022-10-30T14:32:19.704Z,101693.00
2022-10-30T14:34:58.636Z,101710.00
2022-10-30T14:37:28.120Z,101714.00
2022-10-30T14:39:56.534Z,101729.00
2022-10-30T14:42:51.842Z,101731.00
2022-10-30T14:45:43.501Z,101732.00
2022-10-30T14:48:21.834Z,101731.00
2022-10-30T14:50:59.554Z,101728.00
2022-10-30T14:53:43.134Z,101717.00
2022-10-30T14:56:18.375Z,101718.00
2022-10-30T14:59:10.406Z,101713.00
2022-10-30T15:01:57.996Z,101711.00
2022-10-30T15:04:49.068Z,101718.00
2022-10-30T15:07:34.365Z,101724.00
2022-10-30T15:10:09.843Z,101717.00
2022-10-30T15:12:45.189Z,101717.00
2022-10-30T15:15:18.610Z,101719.00
2022-10-30T15:17:51.077Z,101719.00
2022-10-30T15:20:24.019Z,101726.00
2022-10-30T15:23:08.913Z,101728.00
2022-10-30T15:25:57.937Z,101733.00
2022-10-30T15:28:31.305Z,101741.00
2022-10-30T15:31:02.732Z,101739.00
2022-10-30T15:33:32.977Z,101747.00
2022-10-30T15:35:59.687Z,101746.00
2022-10-30T15:38:26.276Z,101751.00
2022-10-30T15:41:02.344Z,101758.00
2022-10-30T15:43:34.413Z,101766.00
2022-10-30T15:46:01.249Z,101764.00
2022-10-30T15:48:33.221Z,101775.00
2022-10-30T15:51:08.457Z,101774.00
2022-10-30T15:53:56.233Z,101775.00
2022-10-30T15:57:08.402Z,101780.00
2022-10-30T15:59:30.527Z,101776.00
2022-10-30T16:01:58.707Z,101776.00
2022-10-30T16:04:31.309Z,101776.00
2022-10-30T16:07:04.411Z,101773.00
2022-10-30T16:09:31.205Z,101789.00
2022-10-30T16:12:00.513Z,101793.00
2022-10-30T16:14:34.414Z,101788.00
2022-10-30T16:17:01.625Z,101786.00
2022-10-30T16:19:31.533Z,101790.00
2022-10-30T16:21:59.471Z,101795.00
2022-10-30T16:24:34.187Z,101803.00
2022-10-30T16:27:14.680Z,101801.00
2022-10-30T16:29:41.910Z,101790.00
2022-10-30T16:34:46.042Z,101807.00
2022-10-30T16:37:22.875Z,101806.00
2022-10-30T16:39:51.548Z,101818.00
2022-10-30T16:42:26.400Z,101813.00
2022-10-30T16:45:12.512Z,101817.00
2022-10-30T16:47:43.724Z,101826.00
2022-10-30T16:50:15.612Z,101827.00
2022-10-30T16:52:43.838Z,101831.00
2022-10-30T16:55:20.033Z,101822.00
2022-10-30T16:57:53.176Z,101821.00
2022-10-30T17:00:25.937Z,101824.00
2022-10-30T17:02:56.275Z,101827.00
2022-10-30T17:05:34.053Z,101832.00
2022-10-30T17:08:33.125Z,101834.00
2022-10-30T17:11:05.282Z,101839.00
2022-10-30T17:13:37.347Z,101839.00
2022-10-30T17:16:18.861Z,101843.00
2022-10-30T17:18:46.852Z,101841.00
2022-10-30T17:21:16.524Z,101823.00
2022-10-30T17:23:54.850Z,101803.00
2022-10-30T17:26:21.696Z,101817.00
2022-10-30T17:28:48.632Z,101817.00
2022-10-30T17:31:17.972Z,101814.00
2022-10-30T17:34:05.678Z,101821.00
2022-10-30T17:36:32.211Z,101824.00
2022-10-30T17:38:58.774Z,101832.00
2022-10-30T17:41:25.327Z,101836.00
2022-10-30T17:43:54.616Z,101858.00
2022-10-30T17:46:21.493Z,101849.00
2022-10-30T17:48:48.167Z,101853.00
2022-10-30T17:51:15.948Z,101857.00
2022-10-30T17:53:42.718Z,101855.00
2022-10-30T17:56:31.502Z,101869.00
2022-10-30T17:58:58.067Z,101878.00
2022-10-30T18:01:26.771Z,101880.00
2022-10-30T18:03:55.406Z,101879.00
2022-10-30T18:06:24.909Z,101884.00
2022-10-30T18:08:51.702Z,101884.00
2022-10-30T18:11:20.357Z,101893.00
2022-10-30T18:13:56.489Z,101895.00
2022-10-30T18:16:24.099Z,101895.00
2022-10-30T18:18:51.810Z,101891.00
2022-10-30T18:21:19.899Z,101896.00
2022-10-30T18:23:52.312Z,101899.00
2022-10-30T18:26:22.102Z,101902.00
2022-10-30T18:28:49.092Z,101904.00
2022-10-30T18:31:17.919Z,101910.00
2022-10-30T18:33:45.640Z,101909.00
2022-10-30T18:36:20.918Z,101913.00
2022-10-30T18:38:48.013Z,101911.00
2022-10-30T18:41:23.099Z,101916.00
2022-10-30T18:43:49.668Z,101915.00
2022-10-30T18:46:17.024Z,101924.00
2022-10-30T18:48:44.167Z,101916.00
2022-10-30T18:51:16.408Z,101917.00
2022-10-30T18:53:51.092Z,101915.00
2022-10-30T18:56:25.363Z,101924.00
2022-10-30T18:58:56.423Z,101926.00
2022-10-30T19:01:28.570Z,101926.00
2022-10-30T19:03:55.274Z,101924.00
2022-10-30T19:06:24.055Z,101922.00
2022-10-30T19:08:50.999Z,101932.00
2022-10-30T19:11:24.057Z,101919.00
2022-10-30T19:13:52.144Z,101923.00
2022-10-30T19:16:19.979Z,101915.00
2022-10-30T19:18:47.576Z,101909.00
2022-10-30T19:21:20.135Z,101918.00
2022-10-30T19:23:47.212Z,101925.00
2022-10-30T19:26:15.182Z,101923.00
2022-10-30T19:28:42.276Z,101918.00
2022-10-30T19:31:13.871Z,101917.00
2022-10-30T19:33:40.592Z,101921.00
2022-10-30T19:36:24.966Z,101925.00
2022-10-30T19:38:51.536Z,101927.00
2022-10-30T19:41:18.188Z,101924.00
2022-10-30T19:43:44.758Z,101924.00
2022-10-30T19:46:13.390Z,101931.00
2022-10-30T19:48:56.579Z,101934.00
2022-10-30T19:51:24.086Z,101927.00
2022-10-30T19:53:52.589Z,101921.00
2022-10-30T19:56:20.247Z,101931.00
2022-10-30T19:58:46.838Z,101921.00
2022-10-30T20:01:14.173Z,101928.00
2022-10-30T20:03:40.838Z,101935.00
2022-10-30T20:06:07.608Z,101932.00
2022-10-30T20:08:34.205Z,101931.00
2022-10-30T20:11:01.979Z,101937.00
2022-10-30T20:13:29.623Z,101936.00
2022-10-30T20:15:58.724Z,101929.00
2022-10-30T20:18:31.624Z,101929.00
2022-10-30T20:21:00.796Z,101940.00
2022-10-30T20:23:27.927Z,101935.00
2022-10-30T20:26:01.539Z,101937.00
2022-10-30T20:28:38.830Z,101937.00
2022-10-30T20:31:06.770Z,101932.00
2022-10-30T20:33:34.047Z,101934.00
2022-10-30T20:36:00.803Z,101934.00
2022-10-30T20:38:35.076Z,101942.00
2022-10-30T20:41:04.723Z,101938.00
2022-10-30T20:43:38.702Z,101946.00
2022-10-30T20:46:09.232Z,101942.00
2022-10-30T20:48:35.977Z,101943.00
2022-10-30T20:51:02.600Z,101952.00
2022-10-30T20:53:29.951Z,101951.00
2022-10-30T20:55:56.744Z,101956.00
2022-10-30T20:58:23.596Z,101955.00
2022-10-30T21:00:50.862Z,101955.00
2022-10-30T21:03:17.455Z,101962.00
2022-10-30T21:05:45.904Z,101966.00
2022-10-30T21:08:15.815Z,101958.00
2022-10-30T21:10:42.833Z,101969.00
2022-10-30T21:13:10.906Z,101971.00
2022-10-30T21:15:42.772Z,101977.00
2022-10-30T21:18:11.160Z,101983.00
2022-10-30T21:20:37.804Z,101979.00
2022-10-30T21:23:05.234Z,101974.00
2022-10-30T21:25:32.496Z,101979.00
2022-10-30T21:28:00.014Z,101983.00
2022-10-30T21:30:27.239Z,101987.00
2022-10-30T21:32:54.014Z,101981.00
2022-10-30T21:35:21.144Z,101996.00
2022-10-30T21:37:47.807Z,101991.00
2022-10-30T21:40:14.397Z,101989.00
2022-10-30T21:42:41.159Z,101987.00
2022-10-30T21:45:08.837Z,101989.00
2022-10-30T21:47:35.657Z,101980.00
2022-10-30T21:50:06.247Z,101980.00
2022-10-30T21:52:36.084Z,101991.00
2022-10-30T21:55:02.765Z,101987.00
2022-10-30T21:57:29.782Z,101986.00
2022-10-30T21:59:58.848Z,101991.00
2022-10-30T22:02:28.402Z,101988.00
2022-10-30T22:04:55.228Z,101985.00
2022-10-30T22:07:21.885Z,101985.00
2022-10-30T22:09:48.531Z,101989.00
2022-10-30T22:12:15.184Z,101995.00
2022-10-30T22:14:41.786Z,101993.00
2022-10-30T22:17:08.781Z,101988.00
2022-10-30T22:19:35.308Z,101985.00
2022-10-30T22:22:01.896Z,101989.00
2022-10-30T22:24:28.453Z,101989.00
2022-10-30T22:26:55.018Z,101993.00
2022-10-30T22:29:21.599Z,101988.00
2022-10-30T22:31:49.763Z,101990.00
2022-10-30T22:34:16.370Z,101992.00
2022-10-30T22:36:42.992Z,101997.00
2022-10-30T22:39:13.744Z,101995.00
2022-10-30T22:41:41.100Z,101999.00
2022-10-30T22:44:11.090Z,101989.00
2022-10-30T22:46:37.930Z,101992.00
2022-10-30T22:49:05.476Z,101991.00
2022-10-30T22:51:33.969Z,101987.00
2022-10-30T22:54:02.224Z,101991.00
2022-10-30T22:56:31.622Z,101991.00
2022-10-30T22:59:01.770Z,101993.00
2022-10-30T23:01:30.550Z,101989.00
2022-10-30T23:03:59.783Z,101992.00
2022-10-30T23:06:28.074Z,101988.00
2022-10-30T23:08:56.765Z,101993.00
2022-10-30T23:11:23.638Z,101998.00
2022-10-30T23:13:50.808Z,101996.00
2022-10-30T23:16:20.809Z,102000.00
2022-10-30T23:18:48.864Z,101995.00
2022-10-30T23:21:20.763Z,101999.00
2022-10-30T23:23:47.623Z,102001.00
2022-10-30T23:26:18.568Z,101998.00
2022-10-30T23:28:45.971Z,101994.00
2022-10-30T23:31:36.940Z,102005.00
2022-10-30T23:34:04.889Z,101991.00
2022-10-30T23:36:31.482Z,101982.00
2022-10-30T23:39:00.530Z,101989.00
2022-10-30T23:41:29.467Z,101993.00
2022-10-30T23:44:01.286Z,101980.00
2022-10-30T23:46:28.596Z,101973.00
2022-10-30T23:48:56.312Z,101974.00
2022-10-30T23:51:23.672Z,101971.00
2022-10-30T23:53:50.709Z,101970.00
2022-10-30T23:56:17.878Z,101976.00
2022-10-30T23:58:49.275Z,101979.00
